Time;durP1;ratioP1;P1;durP2;ratioP2;P2;SDS_P1;SDS_P2;PMS_P1;PMS_P2;Temp;Humidity;BMP_temperature;BMP_pressure;BME280_temperature;BME280_humidity;BME280_pressure;Samples;Min_cycle;Max_cycle;Signal;HPM_P1;HPM_P2
2022/07/27 00:00:46;;;;;;;4.33;2.40;;;;;;;12.49;84.33;101880.03;5082155;28;20161;-82
2022/07/27 00:03:12;;;;;;;8.20;2.70;;;;;;;12.48;84.31;101878.38;5084476;28;20024;-82
2022/07/27 00:05:38;;;;;;;4.07;2.50;;;;;;;12.52;85.74;101878.81;5068918;28;20040;-82
2022/07/27 00:08:05;;;;;;;5.97;2.60;;;;;;;12.45;85.94;101872.50;5087020;28;20040;-82
2022/07/27 00:10:30;;;;;;;4.13;2.33;;;;;;;12.45;86.36;101877.94;5084459;28;20019;-82
2022/07/27 00:12:56;;;;;;;4.27;2.60;;;;;;;12.38;86.52;101877.06;5085689;28;20062;-82
2022/07/27 00:15:21;;;;;;;3.30;2.40;;;;;;;12.31;86.97;101886.00;5084838;28;20102;-82
2022/07/27 00:17:47;;;;;;;4.40;2.20;;;;;;;12.30;87.18;101876.16;5067091;28;20115;-82
2022/07/27 00:20:12;;;;;;;4.67;2.77;;;;;;;12.21;87.65;101871.06;5093641;28;20035;-82
2022/07/27 00:22:37;;;;;;;3.67;2.53;;;;;;;12.20;88.05;101880.25;5066382;28;20069;-83
2022/07/27 00:25:03;;;;;;;4.70;2.50;;;;;;;12.02;88.02;101867.16;5085789;28;20513;-82
2022/07/27 00:27:29;;;;;;;8.00;2.80;;;;;;;12.08;88.50;101880.81;5083942;28;20554;-82
2022/07/27 00:30:13;;;;;;;6.97;2.87;;;;;;;12.13;88.66;101889.22;5086767;28;20078;-83
2022/07/27 00:32:38;;;;;;;4.15;2.65;;;;;;;12.05;88.66;101883.06;5084943;28;20086;-83
2022/07/27 00:35:04;;;;;;;4.83;2.93;;;;;;;11.94;88.46;101869.00;5091546;28;20055;-82
2022/07/27 00:37:30;;;;;;;5.63;2.97;;;;;;;12.04;88.68;101878.69;5084321;28;20036;-83
2022/07/27 00:39:55;;;;;;;4.90;2.80;;;;;;;11.99;88.68;101876.53;5085047;28;20748;-82
2022/07/27 00:42:26;;;;;;;7.63;3.00;;;;;;;11.89;88.26;101876.84;5087201;28;20067;-82
2022/07/27 00:44:54;;;;;;;3.60;2.70;;;;;;;11.95;88.98;101880.69;5083270;28;20032;-82
2022/07/27 00:47:20;;;;;;;4.57;2.93;;;;;;;11.77;88.23;101875.69;5083120;28;20024;-82
2022/07/27 00:49:46;;;;;;;4.53;2.80;;;;;;;11.80;88.79;101872.59;5082186;28;20476;-82
2022/07/27 00:52:13;;;;;;;4.50;2.90;;;;;;;11.81;88.68;101877.00;5084234;28;20020;-82
2022/07/27 00:54:39;;;;;;;5.37;3.20;;;;;;;11.71;88.58;101877.31;5083726;28;20611;-82
2022/07/27 00:57:05;;;;;;;4.63;2.87;;;;;;;11.68;88.79;101876.84;5064136;28;20039;-83
2022/07/27 00:59:30;;;;;;;5.80;3.43;;;;;;;11.74;89.22;101881.53;5065427;28;20387;-82
2022/07/27 01:01:58;;;;;;;5.97;3.10;;;;;;;11.58;89.25;101858.19;5086468;28;20126;-82
2022/07/27 01:04:23;;;;;;;5.37;3.33;;;;;;;11.68;89.06;101879.56;5087269;28;20032;-82
2022/07/27 01:06:48;;;;;;;4.13;3.20;;;;;;;11.61;89.23;101883.06;5083679;28;20483;-82
2022/07/27 01:11:58;;;;;;;4.20;3.13;;;;;;;11.45;89.30;101854.31;5083703;28;20100;-83
2022/07/27 01:14:24;;;;;;;6.97;3.20;;;;;;;11.46;89.79;101868.69;5084630;28;20496;-82
2022/07/27 01:16:50;;;;;;;4.60;3.00;;;;;;;11.52;90.01;101873.38;5082219;28;20032;-82
2022/07/27 01:19:16;;;;;;;7.63;3.23;;;;;;;11.50;90.00;101872.72;5085047;28;20380;-82
2022/07/27 01:21:42;;;;;;;4.53;2.97;;;;;;;11.48;89.59;101872.91;5082143;28;20024;-82
2022/07/27 01:24:08;;;;;;;6.00;3.17;;;;;;;11.49;89.28;101874.59;5083874;28;20452;-83
2022/07/27 01:26:35;;;;;;;4.83;3.30;;;;;;;11.42;89.47;101875.53;5083460;28;20508;-82
2022/07/27 01:29:00;;;;;;;9.60;3.27;;;;;;;11.34;89.22;101881.09;5081557;28;20027;-83
2022/07/27 01:31:27;;;;;;;3.67;2.90;;;;;;;11.26;89.40;101865.75;5083191;28;20057;-82
2022/07/27 01:33:52;;;;;;;5.23;3.10;;;;;;;11.30;89.27;101878.78;5081450;28;20392;-82
2022/07/27 01:36:18;;;;;;;7.37;3.20;;;;;;;11.26;89.29;101880.19;5085109;28;20023;-82
2022/07/27 01:38:44;;;;;;;6.40;3.10;;;;;;;11.25;89.47;101881.22;5084394;28;20140;-82
2022/07/27 01:41:09;;;;;;;5.77;2.90;;;;;;;11.11;89.53;101872.09;5081841;28;20039;-82
2022/07/27 01:43:35;;;;;;;4.97;3.20;;;;;;;11.20;89.70;101882.81;5086023;28;20114;-82
2022/07/27 01:46:01;;;;;;;6.87;3.27;;;;;;;11.22;89.89;101875.31;5085006;28;20035;-82
2022/07/27 01:48:26;;;;;;;5.17;3.47;;;;;;;11.19;90.10;101873.81;5064106;28;20031;-82
2022/07/27 01:50:52;;;;;;;4.97;3.03;;;;;;;11.09;89.93;101867.88;5084890;28;20032;-82
2022/07/27 01:53:20;;;;;;;4.00;2.90;;;;;;;11.03;90.32;101874.03;5082584;28;20051;-82
2022/07/27 01:55:46;;;;;;;5.60;3.20;;;;;;;10.97;90.83;101871.09;5085965;28;20027;-82
2022/07/27 01:58:11;;;;;;;7.70;3.13;;;;;;;10.80;91.02;101847.91;5085367;28;20040;-82
2022/07/27 02:00:37;;;;;;;7.17;3.50;;;;;;;10.93;91.28;101866.22;5074931;28;20030;-82
2022/07/27 02:03:05;;;;;;;7.50;3.33;;;;;;;10.88;91.44;101864.09;5082975;28;20460;-82
2022/07/27 02:05:30;;;;;;;6.63;3.40;;;;;;;10.87;91.81;101870.53;5083524;28;20102;-82
2022/07/27 02:07:56;;;;;;;5.73;3.00;;;;;;;10.84;92.13;101873.63;5083382;28;20295;-82
2022/07/27 02:10:21;;;;;;;6.30;3.20;;;;;;;10.91;92.18;101871.81;5085182;28;20028;-82
2022/07/27 02:12:47;;;;;;;6.63;3.60;;;;;;;10.85;91.96;101866.31;5082966;28;20425;-82
2022/07/27 02:15:18;;;;;;;4.40;3.13;;;;;;;10.85;92.04;101867.16;5082826;28;20032;-82
2022/07/27 02:17:44;;;;;;;4.53;3.27;;;;;;;10.80;91.81;101864.19;5083155;28;20020;-83
2022/07/27 02:20:10;;;;;;;3.93;3.30;;;;;;;10.86;91.88;101862.59;5077035;28;20042;-82
2022/07/27 02:22:36;;;;;;;7.83;3.40;;;;;;;10.70;91.83;101844.66;5082634;28;20028;-82
2022/07/27 02:25:03;;;;;;;4.33;3.37;;;;;;;10.76;92.04;101862.88;5067960;28;20062;-82
2022/07/27 02:27:28;;;;;;;6.00;3.33;;;;;;;10.73;92.11;101852.38;5081584;28;20028;-83
2022/07/27 02:29:53;;;;;;;5.93;3.57;;;;;;;10.84;92.13;101865.50;5077224;28;20047;-82
2022/07/27 02:32:20;;;;;;;5.33;3.53;;;;;;;10.73;92.16;101852.38;5083077;28;20099;-83
2022/07/27 02:34:45;;;;;;;8.60;3.63;;;;;;;10.78;92.08;101855.38;5082758;28;20043;-83
2022/07/27 02:37:11;;;;;;;6.50;3.67;;;;;;;10.73;92.22;101850.53;5084429;28;20024;-83
2022/07/27 02:39:37;;;;;;;6.80;3.70;;;;;;;10.63;92.22;101856.25;5075363;28;20051;-81
2022/07/27 02:42:02;;;;;;;5.87;3.30;;;;;;;10.60;92.31;101858.50;5081967;28;20027;-83
2022/07/27 02:44:28;;;;;;;7.00;3.67;;;;;;;10.69;92.57;101851.94;5072503;28;20047;-83
2022/07/27 02:47:13;;;;;;;5.57;3.33;;;;;;;10.71;92.25;101855.28;5066994;28;20035;-82
2022/07/27 02:49:38;;;;;;;9.75;3.47;;;;;;;10.58;91.71;101855.97;5080873;28;20028;-82
2022/07/27 02:52:04;;;;;;;4.87;3.10;;;;;;;10.62;91.89;101859.97;5082427;28;20035;-82
2022/07/27 02:54:31;;;;;;;6.60;3.30;;;;;;;10.57;91.74;101848.84;5082683;28;20391;-82
2022/07/27 02:56:59;;;;;;;9.27;3.87;;;;;;;10.49;91.67;101857.09;5082662;28;20108;-82
2022/07/27 02:59:24;;;;;;;6.00;3.53;;;;;;;10.48;91.82;101841.84;5078837;28;20036;-82
2022/07/27 03:01:50;;;;;;;5.23;3.50;;;;;;;10.52;92.14;101850.44;5082139;28;20038;-82
2022/07/27 03:04:16;;;;;;;4.10;3.33;;;;;;;10.38;92.27;101841.31;5085049;28;20051;-83
2022/07/27 03:06:42;;;;;;;5.60;3.50;;;;;;;10.40;92.87;101847.34;5084242;28;20459;-83
2022/07/27 03:09:08;;;;;;;3.97;3.53;;;;;;;10.37;93.25;101845.84;5080126;28;20047;-83
2022/07/27 03:11:35;;;;;;;5.03;3.47;;;;;;;10.34;93.00;101853.50;5084328;28;20074;-83
2022/07/27 03:14:00;;;;;;;5.57;3.30;;;;;;;10.33;93.16;101852.63;5085076;28;20464;-83
2022/07/27 03:16:26;;;;;;;4.63;3.17;;;;;;;10.29;93.08;101857.59;5085896;28;20020;-83
2022/07/27 03:18:51;;;;;;;6.70;3.60;;;;;;;10.31;93.19;101855.53;5086289;28;20082;-83
2022/07/27 03:21:16;;;;;;;5.07;3.60;;;;;;;10.29;93.40;101849.47;5087687;28;20052;-83
2022/07/27 03:23:42;;;;;;;4.27;3.40;;;;;;;10.27;93.57;101854.22;5085596;28;20028;-83
2022/07/27 03:26:07;;;;;;;6.17;3.73;;;;;;;10.23;93.38;101862.91;5085892;28;20024;-83
2022/07/27 03:28:33;;;;;;;5.13;3.47;;;;;;;10.35;93.45;101864.19;5085547;28;20113;-83
2022/07/27 03:30:58;;;;;;;6.40;3.47;;;;;;;10.31;93.43;101860.13;5087117;28;20036;-83
2022/07/27 03:33:24;;;;;;;5.97;3.50;;;;;;;10.23;93.19;101850.22;5087837;28;20403;-82
2022/07/27 03:35:50;;;;;;;5.10;3.37;;;;;;;10.28;92.99;101855.91;5086383;28;20036;-83
2022/07/27 03:38:16;;;;;;;4.13;3.40;;;;;;;10.17;93.03;101853.63;5067300;28;20028;-83
2022/07/27 03:40:42;;;;;;;5.70;3.70;;;;;;;10.19;92.84;101857.03;5086181;28;20047;-83
2022/07/27 03:43:08;;;;;;;5.27;3.43;;;;;;;10.23;93.49;101858.34;5064860;28;20028;-83
2022/07/27 03:45:33;;;;;;;6.00;3.80;;;;;;;10.17;93.59;101853.63;5066207;28;20498;-83
2022/07/27 03:47:59;;;;;;;5.60;3.77;;;;;;;10.19;93.78;101862.44;5082612;28;20029;-83
2022/07/27 03:50:26;;;;;;;6.67;3.67;;;;;;;10.18;93.74;101868.88;5086000;28;20863;-83
2022/07/27 03:52:51;;;;;;;5.73;3.53;;;;;;;10.10;93.92;101864.41;5084945;28;20035;-83
2022/07/27 03:55:18;;;;;;;6.17;3.57;;;;;;;10.12;94.32;101865.03;5086073;28;20371;-83
2022/07/27 03:57:43;;;;;;;8.77;3.87;;;;;;;10.12;94.46;101861.50;5084557;28;20119;-83
2022/07/27 04:00:11;;;;;;;8.27;3.97;;;;;;;10.12;94.78;101856.09;5087121;28;20420;-83
2022/07/27 04:02:37;;;;;;;9.23;3.70;;;;;;;10.10;94.82;101852.72;5083995;28;20047;-83
2022/07/27 04:05:03;;;;;;;5.60;3.60;;;;;;;10.05;95.03;101849.69;5082665;28;20028;-83
2022/07/27 04:07:28;;;;;;;6.37;3.87;;;;;;;10.06;94.69;101860.38;5085687;28;20036;-83
2022/07/27 04:09:53;;;;;;;6.17;3.60;;;;;;;10.17;94.46;101866.34;5087534;28;20474;-83
2022/07/27 04:12:19;;;;;;;5.53;3.50;;;;;;;10.17;94.45;101872.59;5085686;28;20388;-83
2022/07/27 04:14:44;;;;;;;4.93;3.60;;;;;;;10.15;94.17;101863.84;5048828;28;20111;-83
2022/07/27 04:17:09;;;;;;;8.57;3.90;;;;;;;10.13;94.35;101868.56;5079926;28;20125;-83
2022/07/27 04:19:35;;;;;;;7.00;3.67;;;;;;;10.08;94.44;101871.84;5065654;28;20039;-83
2022/07/27 04:22:00;;;;;;;8.07;3.73;;;;;;;10.11;94.74;101868.75;5089345;28;20024;-83
2022/07/27 04:24:25;;;;;;;5.73;3.70;;;;;;;10.11;94.67;101871.47;5084899;28;20040;-83
2022/07/27 04:26:51;;;;;;;6.63;4.03;;;;;;;10.19;94.93;101870.56;5065840;28;20028;-83
2022/07/27 04:29:16;;;;;;;7.40;3.73;;;;;;;10.24;95.11;101876.28;5065863;28;20031;-83
2022/07/27 04:31:42;;;;;;;6.77;4.00;;;;;;;10.22;95.40;101869.34;5085637;28;20032;-83
2022/07/27 04:34:07;;;;;;;5.93;3.77;;;;;;;10.21;95.53;101879.34;5084793;28;20040;-82
2022/07/27 04:36:32;;;;;;;9.23;4.07;;;;;;;10.21;95.97;101871.22;5085414;28;20020;-83
2022/07/27 04:38:58;;;;;;;4.93;3.90;;;;;;;10.26;96.71;101879.63;5083749;28;20601;-83
2022/07/27 04:41:23;;;;;;;5.23;3.53;;;;;;;10.28;96.57;101880.28;5084017;28;20028;-83
2022/07/27 04:43:48;;;;;;;6.07;4.00;;;;;;;10.26;96.83;101878.78;5083960;28;20028;-83
2022/07/27 04:46:14;;;;;;;7.40;3.90;;;;;;;10.33;97.16;101885.16;5084291;28;20047;-83
2022/07/27 04:48:40;;;;;;;8.10;4.30;;;;;;;10.36;97.67;101879.38;5078103;28;20067;-82
2022/07/27 04:51:06;;;;;;;6.40;4.23;;;;;;;10.45;97.73;101885.56;5081901;28;20032;-83
2022/07/27 04:53:31;;;;;;;9.90;4.10;;;;;;;10.44;97.15;101883.88;5083951;28;20028;-82
2022/07/27 04:55:57;;;;;;;8.17;4.00;;;;;;;10.52;97.17;101878.38;5083576;28;20040;-82
2022/07/27 04:58:22;;;;;;;6.00;4.17;;;;;;;10.54;97.37;101881.75;5084011;28;20487;-83
2022/07/27 05:00:47;;;;;;;5.80;4.10;;;;;;;10.66;97.90;101884.81;5083861;28;20627;-83
2022/07/27 05:03:13;;;;;;;6.03;4.70;;;;;;;10.68;97.95;101890.09;5086694;28;20440;-83
2022/07/27 05:05:39;;;;;;;8.23;4.17;;;;;;;10.71;98.09;101895.13;5083360;28;20040;-82
2022/07/27 05:08:04;;;;;;;8.97;4.60;;;;;;;10.70;98.11;101882.59;5091146;28;20072;-83
2022/07/27 05:10:30;;;;;;;9.07;4.83;;;;;;;10.81;98.35;101887.53;5084130;28;20036;-82
2022/07/27 05:12:55;;;;;;;7.07;4.60;;;;;;;10.91;98.34;101893.53;5085037;28;20027;-83
2022/07/27 05:15:21;;;;;;;11.07;4.70;;;;;;;11.00;98.41;101890.72;5083631;28;20119;-82
2022/07/27 05:17:47;;;;;;;10.83;5.17;;;;;;;11.13;98.94;101893.59;5083620;28;20555;-82
2022/07/27 05:20:13;;;;;;;15.70;5.47;;;;;;;11.23;99.48;101902.28;5078947;28;20072;-82
2022/07/27 05:22:39;;;;;;;9.10;4.97;;;;;;;11.34;99.08;101910.94;5066704;28;20058;-82
2022/07/27 05:25:05;;;;;;;13.07;5.57;;;;;;;11.40;99.09;101908.31;5083977;28;20418;-82
2022/07/27 05:27:30;;;;;;;9.73;5.37;;;;;;;11.47;99.13;101909.22;5084807;28;20051;-83
2022/07/27 05:29:56;;;;;;;10.40;5.63;;;;;;;11.58;99.22;101910.59;5085184;28;20016;-83
2022/07/27 05:32:21;;;;;;;13.17;5.93;;;;;;;11.64;98.69;101898.97;5083575;28;20365;-82
2022/07/27 05:34:47;;;;;;;9.40;5.33;;;;;;;11.82;97.95;101911.25;5084461;28;20078;-82
2022/07/27 05:37:12;;;;;;;10.53;5.60;;;;;;;11.90;97.60;101911.13;5084974;28;20076;-83
2022/07/27 05:39:40;;;;;;;10.67;5.20;;;;;;;11.94;97.30;101901.59;5085773;28;20361;-83
2022/07/27 05:42:07;;;;;;;13.60;5.57;;;;;;;12.10;96.70;101919.50;5081964;28;20059;-82
2022/07/27 05:44:32;;;;;;;9.00;4.90;;;;;;;12.22;96.27;101917.06;5083093;28;20035;-83
2022/07/27 05:46:57;;;;;;;11.57;5.00;;;;;;;12.31;96.19;101909.63;5082588;28;20093;-83
2022/07/27 05:49:23;;;;;;;12.57;5.40;;;;;;;12.37;96.48;101914.25;5066962;28;20156;-82
2022/07/27 05:51:48;;;;;;;10.30;4.63;;;;;;;12.51;96.02;101909.75;5086820;28;20067;-83
2022/07/27 05:54:14;;;;;;;10.97;4.80;;;;;;;12.63;96.08;101916.34;5090470;28;20036;-84
2022/07/27 05:56:40;;;;;;;9.03;4.60;;;;;;;12.70;95.39;101907.38;5083734;28;20111;-83
2022/07/27 05:59:05;;;;;;;8.13;4.33;;;;;;;12.80;94.73;101907.84;5088599;28;20115;-83
2022/07/27 06:01:30;;;;;;;7.77;4.60;;;;;;;12.87;94.21;101916.88;5083526;28;20039;-83
2022/07/27 06:03:56;;;;;;;5.10;3.70;;;;;;;12.96;92.84;101917.53;5080281;28;20465;-83
2022/07/27 06:09:05;;;;;;;9.45;4.57;;;;;;;13.22;92.79;101927.72;5081347;28;20059;-82
2022/07/27 06:11:31;;;;;;;13.43;4.93;;;;;;;13.32;92.16;101932.78;5082445;28;20035;-83
2022/07/27 06:13:56;;;;;;;12.63;4.87;;;;;;;13.37;91.92;101938.50;5077466;28;20043;-83
2022/07/27 06:16:22;;;;;;;8.77;4.50;;;;;;;13.43;89.73;101940.38;5041154;28;20032;-83
2022/07/27 06:18:48;;;;;;;8.83;4.50;;;;;;;13.55;89.92;101934.38;5052088;28;20053;-82
2022/07/27 06:21:13;;;;;;;8.07;4.27;;;;;;;13.61;89.34;101938.97;5077333;28;20150;-83
2022/07/27 06:23:38;;;;;;;10.57;4.50;;;;;;;13.65;88.86;101935.66;5077244;28;20122;-83
2022/07/27 06:26:04;;;;;;;9.63;4.50;;;;;;;13.79;88.37;101938.38;5077714;28;20718;-83
2022/07/27 06:28:29;;;;;;;8.10;4.03;;;;;;;13.89;88.16;101932.56;5077446;28;20051;-83
2022/07/27 06:30:55;;;;;;;8.33;3.90;;;;;;;14.04;89.16;101935.09;5078084;28;20035;-82
2022/07/27 06:33:27;;;;;;;8.17;4.13;;;;;;;13.99;89.38;101927.53;5076585;28;20395;-84
2022/07/27 06:35:57;;;;;;;7.97;3.40;;;;;;;14.21;86.01;101933.63;5069839;28;20469;-82
2022/07/27 06:38:23;;;;;;;9.90;3.50;;;;;;;14.33;87.09;101940.13;5056390;28;20032;-83
2022/07/27 06:40:51;;;;;;;5.30;3.13;;;;;;;14.53;85.97;101944.72;5085850;28;20060;-84
2022/07/27 06:43:21;;;;;;;6.67;3.20;;;;;;;14.69;85.19;101938.03;5086427;28;20036;-83
2022/07/27 06:45:46;;;;;;;8.00;3.27;;;;;;;14.58;83.56;101931.31;5081133;28;20150;-84
2022/07/27 06:48:12;;;;;;;9.70;3.30;;;;;;;14.79;82.38;101943.88;5089502;28;20119;-84
2022/07/27 06:50:37;;;;;;;4.17;2.80;;;;;;;14.97;82.89;101945.94;5066384;28;20089;-84
2022/07/27 06:53:02;;;;;;;6.40;3.00;;;;;;;14.93;80.78;101949.28;5062280;28;20068;-83
2022/07/27 06:55:28;;;;;;;8.33;3.47;;;;;;;15.09;83.52;101937.91;5081438;28;20039;-82
2022/07/27 06:57:54;;;;;;;8.90;4.10;;;;;;;15.23;84.79;101944.19;5079357;28;20031;-83
2022/07/27 07:00:19;;;;;;;6.13;3.30;;;;;;;15.25;82.22;101930.31;5080789;28;20052;-84
2022/07/27 07:02:59;;;;;;;7.67;3.30;;;;;;;15.35;81.34;101942.44;5078821;28;20032;-84
2022/07/27 07:05:25;;;;;;;8.03;3.00;;;;;;;15.44;79.75;101951.22;5062384;28;20047;-84
2022/07/27 07:07:52;;;;;;;4.33;3.17;;;;;;;15.56;79.78;101943.19;5080686;28;20048;-85
2022/07/27 07:10:17;;;;;;;6.27;3.50;;;;;;;15.58;79.51;101946.50;5080379;28;20118;-83
2022/07/27 07:12:43;;;;;;;5.67;3.20;;;;;;;15.81;79.88;101951.44;5079983;28;20035;-83
2022/07/27 07:15:09;;;;;;;6.20;3.10;;;;;;;15.91;78.98;101963.81;5080554;28;20040;-83
2022/07/27 07:17:34;;;;;;;5.87;3.30;;;;;;;16.00;78.40;101959.75;5080274;28;20119;-84
2022/07/27 07:19:59;;;;;;;6.40;3.07;;;;;;;16.02;77.45;101955.75;5080784;28;20039;-84
2022/07/27 07:22:25;;;;;;;5.87;3.13;;;;;;;16.01;77.08;101959.53;5081072;28;20044;-83
2022/07/27 07:24:50;;;;;;;6.00;2.90;;;;;;;16.20;75.74;101957.69;5080489;28;20108;-83
2022/07/27 07:27:19;;;;;;;6.73;3.23;;;;;;;16.23;76.04;101958.34;5081065;28;20093;-83
2022/07/27 07:29:44;;;;;;;6.93;3.23;;;;;;;16.22;74.16;101960.22;5080848;28;20036;-83
2022/07/27 07:32:10;;;;;;;7.17;2.70;;;;;;;16.30;73.18;101959.09;5080446;28;20800;-83
2022/07/27 07:34:35;;;;;;;5.70;2.50;;;;;;;16.42;72.64;101956.50;5080414;28;20111;-83
2022/07/27 07:37:01;;;;;;;4.10;2.80;;;;;;;16.40;72.82;101961.34;5080986;28;20129;-82
2022/07/27 07:39:26;;;;;;;5.27;2.67;;;;;;;16.47;73.51;101959.38;5079721;28;20036;-84
2022/07/27 07:41:52;;;;;;;5.70;2.57;;;;;;;16.64;72.35;101965.94;5080502;28;20679;-83
2022/07/27 07:44:18;;;;;;;7.33;2.40;;;;;;;16.81;72.70;101968.94;5079795;28;20031;-83
2022/07/27 07:46:43;;;;;;;4.83;1.90;;;;;;;16.93;68.86;101970.97;5080527;28;20159;-84
2022/07/27 07:49:09;;;;;;;5.30;1.97;;;;;;;16.98;67.42;101976.59;5079449;28;20039;-83
2022/07/27 07:51:35;;;;;;;6.77;2.13;;;;;;;16.94;67.67;101976.19;5062290;28;20039;-84
2022/07/27 07:54:00;;;;;;;4.43;1.97;;;;;;;17.11;67.65;101981.06;5079755;28;20040;-83
2022/07/27 07:56:25;;;;;;;5.93;2.20;;;;;;;17.03;66.54;101974.84;5080244;28;20058;-84
2022/07/27 07:58:51;;;;;;;3.30;2.17;;;;;;;17.40;67.51;101978.66;5061465;28;20543;-84
2022/07/27 08:01:16;;;;;;;5.57;2.03;;;;;;;17.35;67.54;101957.41;5079978;28;20198;-83
2022/07/27 08:03:41;;;;;;;5.03;2.00;;;;;;;17.69;68.04;101977.84;5080208;28;20052;-84
2022/07/27 08:06:41;;;;;;;7.93;1.90;;;;;;;17.91;67.79;101982.81;5061591;28;20063;-83
2022/07/27 08:09:07;;;;;;;4.80;1.50;;;;;;;17.91;62.19;101974.59;5039737;28;20054;-84
2022/07/27 08:11:32;;;;;;;4.30;1.03;;;;;;;17.69;58.86;101983.31;5039829;28;20626;-84
2022/07/27 08:13:58;;;;;;;6.33;1.67;;;;;;;17.62;60.06;101979.81;5039609;28;20110;-84
2022/07/27 08:16:23;;;;;;;3.50;1.40;;;;;;;17.75;60.56;101964.25;5040164;28;20083;-84
2022/07/27 08:18:49;;;;;;;4.47;1.33;;;;;;;17.97;59.45;101984.63;5039257;28;20037;-83
2022/07/27 08:21:14;;;;;;;5.57;1.43;;;;;;;17.59;59.60;101983.03;5039695;28;20037;-82
2022/07/27 08:23:40;;;;;;;5.70;1.47;;;;;;;17.59;58.98;101991.25;5039188;28;20025;-83
2022/07/27 08:26:05;;;;;;;3.00;1.50;;;;;;;17.36;60.79;101984.56;5039490;28;20033;-83
2022/07/27 08:28:31;;;;;;;4.23;1.50;;;;;;;17.51;61.63;101986.91;5039303;28;20469;-84
2022/07/27 08:30:56;;;;;;;3.73;1.40;;;;;;;17.70;58.77;101990.44;5039801;28;20037;-84
2022/07/27 08:33:21;;;;;;;4.35;1.23;;;;;;;18.26;60.03;101993.03;5039108;28;20037;-84
2022/07/27 08:35:47;;;;;;;4.93;1.23;;;;;;;18.39;58.09;101979.13;5054191;28;20033;-83
2022/07/27 08:38:12;;;;;;;2.92;1.45;;;;;;;18.80;56.74;101986.66;5039200;28;20033;-84
2022/07/27 08:40:38;;;;;;;5.18;1.25;;;;;;;19.18;54.44;101979.84;5038967;28;20033;-84
2022/07/27 08:43:05;;;;;;;4.53;1.20;;;;;;;19.64;57.36;101980.78;5038966;28;20506;-83
2022/07/27 08:45:31;;;;;;;5.53;1.23;;;;;;;19.26;53.00;101979.47;5038955;28;20090;-84
2022/07/27 08:47:57;;;;;;;4.70;1.33;;;;;;;19.87;54.03;101984.53;5039201;28;20094;-84
2022/07/27 08:50:23;;;;;;;5.50;1.45;;;;;;;20.03;53.43;101974.63;5039023;28;20071;-84
2022/07/27 08:53:04;;;;;;;6.78;1.48;;;;;;;20.54;54.09;101974.66;5037769;28;20044;-83
2022/07/27 08:55:35;;;;;;;6.35;1.38;;;;;;;20.81;51.64;101974.81;5035959;28;20171;-83
2022/07/27 08:58:01;;;;;;;4.43;1.10;;;;;;;21.37;47.75;101973.88;5038755;28;20040;-84
2022/07/27 09:00:27;;;;;;;1.83;1.00;;;;;;;21.76;47.13;101976.56;5040550;28;20346;-84
2022/07/27 09:02:53;;;;;;;2.80;1.15;;;;;;;21.58;46.83;101969.44;5042289;28;20082;-85
2022/07/27 09:05:19;;;;;;;2.85;1.02;;;;;;;21.68;47.61;101975.09;5042139;28;20410;-84
2022/07/27 09:07:44;;;;;;;5.75;1.23;;;;;;;22.02;45.71;101974.88;5063382;28;20071;-84
2022/07/27 09:14:10;;;;;;;2.85;1.33;;;;;;;22.71;47.49;101978.75;5093750;28;20489;-84
2022/07/27 09:16:35;;;;;;;6.20;1.13;;;;;;;22.61;48.06;101983.38;5085906;28;20119;-85
2022/07/27 09:19:06;;;;;;;3.95;1.27;;;;;;;22.89;44.01;101985.78;5084333;28;20024;-85
2022/07/27 09:21:33;;;;;;;3.15;1.08;;;;;;;22.42;45.13;101979.13;5065886;28;20475;-85
2022/07/27 09:24:08;;;;;;;4.97;1.27;;;;;;;22.83;47.18;101978.53;5081381;28;20032;-84
2022/07/27 09:26:34;;;;;;;5.88;1.20;;;;;;;22.85;45.38;101983.81;5083184;28;20474;-83
2022/07/27 09:29:04;;;;;;;3.40;1.15;;;;;;;23.14;45.85;101981.50;5084361;28;20073;-85
2022/07/27 09:31:30;;;;;;;6.30;1.20;;;;;;;23.02;44.13;101981.69;5082710;28;20122;-86
2022/07/27 09:33:59;;;;;;;4.47;1.15;;;;;;;22.36;44.42;101984.88;5078028;28;20434;-83
2022/07/27 09:36:27;;;;;;;5.45;1.10;;;;;;;22.54;43.86;101991.91;5060114;28;20035;-83
2022/07/27 09:39:01;;;;;;;3.88;1.17;;;;;;;22.75;42.93;101987.34;5076763;28;20669;-84
2022/07/27 09:41:38;;;;;;;4.20;1.23;;;;;;;22.89;42.17;101990.47;5077739;28;20070;-86
2022/07/27 09:44:03;;;;;;;3.38;1.20;;;;;;;23.32;42.20;101987.66;5077133;28;20127;-85
2022/07/27 09:46:34;;;;;;;3.00;1.30;;;;;;;23.60;40.84;101980.84;5077943;28;20038;-82
2022/07/27 09:49:00;;;;;;;6.40;1.30;;;;;;;23.57;41.00;101986.94;5078463;28;20707;-82
2022/07/27 09:51:26;;;;;;;3.65;1.30;;;;;;;23.51;39.20;101988.00;5059503;28;20024;-82
2022/07/27 09:53:53;;;;;;;3.28;1.20;;;;;;;23.70;40.62;101991.91;5059232;28;20034;-83
2022/07/27 09:56:28;;;;;;;3.80;1.40;;;;;;;23.96;40.75;101986.47;5077544;28;20178;-82
2022/07/27 09:59:00;;;;;;;3.47;1.30;;;;;;;24.42;39.15;101992.03;5077792;28;20075;-82
2022/07/27 10:01:29;;;;;;;2.42;1.60;;;;;;;23.98;38.22;101989.81;5077559;28;20032;-82
2022/07/27 10:03:57;;;;;;;3.25;1.40;;;;;;;24.71;38.57;101982.31;5077849;28;20028;-82
2022/07/27 10:06:23;;;;;;;3.83;1.30;;;;;;;24.73;39.82;101982.88;5077757;28;20500;-83
2022/07/27 10:08:51;;;;;;;2.47;1.20;;;;;;;24.80;38.89;101985.38;5077181;28;20058;-83
2022/07/27 10:11:35;;;;;;;4.38;1.00;;;;;;;25.16;40.26;101974.16;5078470;28;20048;-82
2022/07/27 10:14:00;;;;;;;4.95;1.58;;;;;;;25.20;37.44;101986.31;5077665;28;20068;-82
2022/07/27 10:16:28;;;;;;;2.00;1.27;;;;;;;25.54;38.51;101982.88;5059626;28;20134;-84
2022/07/27 10:19:12;;;;;;;2.47;1.42;;;;;;;25.89;38.97;101979.06;5081206;28;20036;-82
2022/07/27 10:21:40;;;;;;;2.22;1.23;;;;;;;25.99;34.64;101974.53;5090569;28;20028;-83
2022/07/27 10:24:11;;;;;;;4.25;1.40;;;;;;;26.27;35.04;101978.50;5101075;28;20102;-83
2022/07/27 10:26:41;;;;;;;3.38;1.65;;;;;;;25.23;35.43;101967.19;5096283;28;20054;-84
2022/07/27 10:29:12;;;;;;;3.35;1.23;;;;;;;25.02;36.44;101966.44;5094901;28;20031;-82
2022/07/27 10:31:58;;;;;;;3.60;1.40;;;;;;;23.73;37.98;101972.03;5093051;28;20107;-82
2022/07/27 10:34:41;;;;;;;4.80;1.60;;;;;;;23.52;40.28;101965.59;5096330;28;20359;-82
2022/07/27 10:37:24;;;;;;;3.83;1.70;;;;;;;23.59;40.72;101954.28;5105392;28;20051;-82
2022/07/27 10:40:33;;;;;;;2.30;1.67;;;;;;;23.91;41.23;101967.13;5080275;28;20042;-83
2022/07/27 10:42:41;;;;;;;2.80;1.63;;;;;;;23.69;40.33;101968.16;5080694;28;20039;-83
2022/07/27 10:45:09;;;;;;;3.38;1.85;;;;;;;23.91;37.59;101958.81;5080971;28;20043;-83
2022/07/27 10:47:43;;;;;;;4.38;1.70;;;;;;;24.35;38.19;101952.69;5081021;28;20066;-84
2022/07/27 10:50:15;;;;;;;4.47;1.35;;;;;;;24.37;37.30;101958.81;5080906;28;20059;-83
2022/07/27 10:52:56;;;;;;;4.65;1.70;;;;;;;24.31;39.45;101954.38;5081096;28;20147;-84
2022/07/27 10:55:35;;;;;;;3.00;1.40;;;;;;;23.21;39.21;101959.97;5080677;28;20036;-82
2022/07/27 10:58:03;;;;;;;3.83;1.63;;;;;;;22.46;40.95;101953.72;5081048;28;20495;-84
2022/07/27 11:00:50;;;;;;;2.67;1.45;;;;;;;21.93;43.06;101948.84;5080885;28;20379;-83
2022/07/27 11:03:34;;;;;;;4.55;1.90;;;;;;;21.90;44.56;101941.94;5080209;28;20032;-82
2022/07/27 11:06:04;;;;;;;6.70;1.58;;;;;;;21.12;43.82;101952.34;5081024;28;20121;-83
2022/07/27 11:08:32;;;;;;;4.10;1.60;;;;;;;21.31;44.67;101941.81;5080865;28;20467;-83
2022/07/27 11:10:58;;;;;;;6.78;1.90;;;;;;;20.96;44.84;101937.56;5080357;28;20131;-83
2022/07/27 11:13:25;;;;;;;6.28;1.50;;;;;;;20.88;45.67;101939.63;5080681;28;20024;-83
2022/07/27 11:15:56;;;;;;;4.10;1.70;;;;;;;20.80;47.60;101931.00;5080933;28;20063;-82
2022/07/27 11:18:31;;;;;;;4.45;1.52;;;;;;;20.77;46.93;101948.00;5080849;28;20035;-83
2022/07/27 11:21:15;;;;;;;4.40;1.45;;;;;;;20.83;45.60;101947.00;5080561;28;20027;-83
2022/07/27 11:23:44;;;;;;;3.25;1.60;;;;;;;20.61;45.28;101949.69;5080692;28;20040;-82
2022/07/27 11:26:09;;;;;;;4.22;1.30;;;;;;;20.47;44.75;101938.22;5080476;28;20047;-82
2022/07/27 11:28:36;;;;;;;3.17;1.40;;;;;;;20.35;46.78;101936.38;5079903;28;20032;-82
2022/07/27 11:31:02;;;;;;;3.28;1.40;;;;;;;20.36;47.04;101943.53;5080961;28;20406;-82
2022/07/27 11:33:28;;;;;;;3.58;1.50;;;;;;;20.41;46.19;101938.13;5080754;28;20036;-82